LIRZ/PEG METAR and TAF weather

Enter ICAO airport designator
Station Type Date Time Source
LIRZ METAR 2019/06/26 19:50 UTC NOAA

LIRZ 261950Z 02010KT CAVOK 28/16 Q1021


Station Type Date Time Source
LIRZ Decoded METAR 2019/06/26 19:50 UTC NOAA

Perugia, Italy (LIRZ) 43-05N 012-30E 205M
Jun 26, 2019 - 03:50 PM EDT / 2019.06.26 1950 UTC
Wind: from the NNE (020 degrees) at 12 MPH (10 KT):0
Visibility: greater than 7 mile(s):0
Temperature: 82 F (28 C)
Dew Point: 60 F (16 C)
Relative Humidity: 48%
Pressure (altimeter): 30.15 in. Hg (1021 hPa)
ob: LIRZ 261950Z 02010KT CAVOK 28/16 Q1021
cycle: 20

Station Type Date Time Source
LIRZ TAF 2019/06/26 18:21 UTC NOAA

TAF LIRZ 261700Z 2618/2718 VRB04KT CAVOK
BECMG 2708/2710 02012KT

Example: see airport list